Clearfield, PA

11:59 PM EDT on October 25, 2014 (GMT -0400)
Clearfield | Change Station
CLOSE
Current Station
Personal Weather Station
Location: Clearfield, PA
Elevation: 1127 ft
Nearby Weather Stations

Elev 1127 ft 41.02 °N, 78.46 °W | Updated 4 minutes ago

Clear
Clear
56.9 °F
Feels Like 56.9 °F
N
1.0
Wind Variable Wind from NW
Gusts 1.0 mph

Today
High -- | Low -- °F
--% Chance of Precip.
Yesterday
High -- | Low -- °F
Precip. -- in
7:36 AM 6:18 PM
Waxing Crescent, 5% visible
Pressure 29.68 in
Visibility 10.0 miles
Clouds Clear
Dew Point 44 °F
Humidity 63%
Rainfall 0.00 in
Snow Depth Not available.
UV 0.0 out of 12
Pollen 1.20 out of 12
Air Quality Not available.
Flu Activity Sporadic
METAR KFIG 260354Z AUTO 27008KT 10SM CLR 14/04 A2969 RMK AO2 SLP049 T01390039

More Conditions Fewer Conditions

Pressure 29.68 in
Visibility 10.0 miles
Clouds Clear
Dew Point 44 °F
Humidity 63%
Rainfall 0.00 in
Snow Depth Not available.
UV 0.0 out of 12
Pollen 1.20 out of 12
Air Quality Not available.
Flu Activity Sporadic
METAR KFIG 260354Z AUTO 27008KT 10SM CLR 14/04 A2969 RMK AO2 SLP049 T01390039

More Conditions Fewer Conditions

Nowcast | as of 10:16 PM EDT on October 25, 2014

At 1010 PM...a developing line of showers was from near Benton...southwestward to just north of a Harrisburg... Mount Union...Ebensburg line. Some of the showers were on the heavy side. The showers are moving southeast at 35 mph...and should be south of Pennsylvania...Maryland border by 1 am.

×

10-Day Weather Forecast

Almanac

Astronomy

Oct. 25, 2014 Rise Set
Actual Time 7:36 AM EDT 6:18 PM EDT
Civil Twilight 7:08 AM EDT 6:46 PM EDT
Nautical Twilight 6:36 AM EDT 7:18 PM EDT
Astronomical Twilight 6:04 AM EDT 7:50 PM EDT
Moon 9:14 AM EDT (10/25) 7:39 PM EDT (10/25)
Length of Visible Light 11h 38m
Length of Day
10h 42m
Tomorrow will be 2m 31s shorter.
Waxing Crescent, 5% of the Moon is Illuminated
Today
Waxing Crescent
Oct 30
First Quarter
Nov 6
Full
Nov 14
Last Quarter
Nov 22
New

Today's Extremes

State Highs State Lows

Community

WunderPhotos

Upload Photos

1,765,095 photos uploaded!

Nearby

Snow Depth

Station Depth Elevation
No new snow has been reported.

Earthquake Activity

City Distance Mag. Time & Date
No recent earthquake activity has been reported nearby.
Minimum magnitude displayed is 2.5.

Coastal Water Temperatures

Place Temperature
No Stations Reporting

Nearby Weather Stations